Weather observations for the past three days for
Frederick Municipal Airport
Metric (Imperial)
Date Time (edt) Wind (kph) Vis. (km) Weather Sky Cond. Temperature (ºC) Relative Humidity Wind Chill (°C) Heat Index (°C) Pressure Precipitation (cm)
Air Dwpt 6 hour altimeter (cm) sea level (mb) 1 hr 3 hr 6 hr
Max. Min.
03 15:47 NW 15 16.09 Fair CLR 17 -2 27% 76.15 0.0
03 14:47 NW 11 G 30 16.09 A Few Clouds FEW080 16 -3 27% 76.2 0.0
03 13:47 W 19 16.09 Partly Cloudy SCT075 15 -2 31% 76.25 0.0
03 12:47 NW 20 G 39 16.09 Partly Cloudy SCT070 14 -3 31% 76.28 0.0
03 11:47 NW 28 G 41 16.09 Mostly Cloudy BKN060 11 -3 38% 76.35 0.0
03 10:47 NW 28 G 41 16.09 Fair CLR 11 -3 38% 76.35 0.0
03 09:47 NW 28 G 37 16.09 Fair CLR 6 -2 57% 2 76.38 0.0
03 08:47 NW 28 G 37 16.09 Fair CLR 6 -2 57% 2 76.38 0.0
03 07:47 W 15 16.09 Fair CLR 6 -2 57% 3 76.35 0.0
03 06:47 W 6 16.09 Fair CLR 4 -1 70% 76.3 0.0
03 06:15 W 9 14.48 Fair CLR 3.5 -1.1 72% 1 76.25 0.0
03 05:55 W 7 16.09 Fair CLR 3.1 -0.9 75% 1 76.23 0.0
03 05:35 W 6 16.09 Fair CLR 3.6 -0.7 74% 76.23 0.0
03 05:15 W 11 16.09 Fair CLR 4.2 -0.9 70% 2 76.23 0.0
03 04:55 NW 11 16.09 Fair CLR 4.7 -1 67% 2 76.2 0.0
03 04:35 NW 11 16.09 Fair CLR 5.2 -1 65% 3 76.2 0.0
03 04:15 NW 11 16.09 Fair CLR 5.5 -0.9 64% 3 76.17 0.0
03 03:55 NW 15 16.09 Fair CLR 5.9 -0.7 63% 3 76.17 0.0
03 03:35 NW 15 16.09 A Few Clouds FEW085 5.9 -0.5 64% 3 76.15 0.0
03 03:15 NW 13 16.09 Overcast OVC085 6.4 0.3 65% 4 76.15 0.0
03 02:55 NW 11 16.09 Overcast OVC085 6.2 0.7 68% 4 76.12 0.0
03 02:35 Calm 8.05 Mostly Cloudy with Haze BKN085 5.6 0.3 69% 76.12 0.0
03 02:15 NW 6 16.09 A Few Clouds FEW085 5.1 0.5 72% 76.12 0.0
03 01:55 NW 7 16.09 Fair CLR 5.1 0.1 12 5.1 70% 4 76.12 0.0
03 01:35 W 9 16.09 Fair CLR 5.5 0.1 69% 4 76.12 0.0
03 01:15 W 11 16.09 Fair CLR 5.6 -0.1 67% 3 76.12 0.0
03 00:55 NW 6 16.09 Fair CLR 5.8 -0.3 65% 76.12 0.0
03 00:35 NW 9 16.09 Fair CLR 6.3 -0.3 63% 5 76.15 0.0
03 00:15 NW 9 16.09 Fair CLR 6.2 -0.2 64% 5 76.15 0.0
02 23:55 W 6 16.09 Fair CLR 6.8 0 62% 76.15 0.0
02 23:35 NW 6 16.09 Fair CLR 7.1 0.2 62% 76.15 0.0
02 23:15 NW 9 16.09 Fair CLR 8.2 0 57% 7 76.15 0.0
02 22:55 N 13 16.09 A Few Clouds FEW095 8.8 0 54% 7 76.17 0.0
02 22:35 NW 9 16.09 A Few Clouds FEW095 9.1 0.1 54% 8 76.15 0.0
02 22:15 NW 11 16.09 A Few Clouds FEW095 9.5 0.3 53% 8 76.15 0.0
02 21:55 N 15 16.09 Mostly Cloudy BKN090 9.9 0.4 52% 8 76.12 0.0
02 21:35 N 15 16.09 Overcast OVC090 10.6 0.2 49% 76.12 0.0
02 21:15 N 19 16.09 Overcast OVC090 11 0 47% 76.12 0.0
02 20:47 NW 11 16.09 Overcast OVC085 11 -1 44% 76.1 0.0
02 19:47 NW 13 16.09 Mostly Cloudy BKN080 12 -1 41% 76.02 0.0
02 18:47 N 13 16.09 Mostly Cloudy BKN090 13 -1 38% 76 0.0
02 17:47 NW 19 16.09 Mostly Cloudy BKN085 13 0 41% 76 0.0
02 16:47 NW 19 16.09 Mostly Cloudy BKN080 14 0 39% 75.97 0.0
02 15:47 NW 15 G 31 16.09 Mostly Cloudy BKN075 15 0 36% 75.97 0.0
02 14:47 NW 19 16.09 Mostly Cloudy BKN070 15 -1 34% 76.05 0.0
02 13:47 Calm 16.09 Mostly Cloudy BKN070 14 1 41% 76.07 0.0
02 12:47 NE 15 16.09 Mostly Cloudy BKN060 14 1 41% 76.12 0.0
02 11:47 NE 15 16.09 A Few Clouds FEW060 14 1 41% 76.12 0.0
02 10:47 N 15 16.09 Fair CLR 12 1 47% 76.17 0.0
02 09:47 N 15 16.09 Fair CLR 11 1 50% 76.15 0.0
02 08:47 NE 13 16.09 Fair CLR 10 3 62% 8 76.17 0.0
02 07:52 N 13 16.09 Fair CLR 9 3 66% 7 76.17 0.0
02 06:47 NW 17 16.09 A Few Clouds FEW090 8 3 71% 6 76.17 0.0
02 06:15 NW 20 16.09 Fair CLR 7.8 3.3 73% 5 76.12 0.0
02 05:55 NW 17 G 28 14.48 Partly Cloudy SCT090 8.5 3.2 70% 6 76.12 0.0
02 05:35 NW 13 16.09 A Few Clouds FEW095 8.3 3.4 72% 6 76.1 0.0
02 05:15 NW 17 14.48 Partly Cloudy SCT095 8.7 3.3 69% 6 76.1 0.0
02 04:55 NW 20 16.09 Overcast OVC090 9.1 3.3 67% 6 76.1 0.0
02 04:35 NW 19 16.09 Overcast OVC090 9.2 3.4 67% 7 76.12 0.0
02 04:15 W 13 14.48 Mostly Cloudy BKN090 9.2 3.8 69% 7 76.07 0.0
02 03:55 W 9 16.09 Mostly Cloudy BKN090 9 4 71% 8 76.07 0.0
02 03:15 NW 9 16.09 Overcast BKN090 OVC110 10.5 3.8 64% 76.07 0.0
02 02:55 W 15 16.09 Overcast BKN085 OVC110 10.8 3.8 62% 76.05 0.0
02 02:35 NW 13 16.09 Overcast OVC080 11.1 4.2 63% 76.07 0.0
02 02:15 NW 17 G 26 16.09 Overcast OVC075 11.6 4.7 63% 76.07 0.0
02 01:55 NW 13 16.09 Overcast OVC070 11.8 5.8 16.3 11.8 67% 76.05 0.0 0.03
02 01:35 W 11 16.09 Overcast OVC070 11.9 6 67% 76.07 0.0
02 01:15 NW 11 G 30 16.09 Overcast OVC065 12 6.6 70% 76.07 0.0
02 00:55 N 9 16.09 Overcast OVC060 12.3 6.2 67% 76.05 0.0
02 00:35 NW 9 16.09 Overcast OVC060 12.4 6.4 67% 76.07 0.0
02 00:15 NW 9 16.09 Overcast OVC060 12.7 6.5 66% 76.02 0.0
01 23:55 NW 6 16.09 Overcast OVC055 12.8 6.9 68% 76.05 0.0
01 23:35 Vrbl 6 16.09 Mostly Cloudy BKN055 BKN130 12.4 7.9 74% 76.02 0.0
01 23:15 Calm 12.87 Mostly Cloudy FEW049 BKN060 BKN130 12.6 8.5 76% 76 0.0
01 22:55 Vrbl 11 8.05 Light Rain FEW049 OVC065 12.4 9.9 85% 76 0.0 0.03 0.03
01 22:35 Calm 12.87 Mostly Cloudy BKN070 BKN085 12.5 9.2 80% 75.95 0.0
01 22:15 W 7 12.87 Light Rain FEW042 BKN060 13.4 8.2 71% 75.97 0.0
01 21:55 NW 6 12.87 Light Rain FEW026 SCT055 BKN075 OVC095 14.3 8 66% 75.95 0.0
01 21:35 Calm 16.09 Overcast BKN090 OVC100 13.6 7.7 68% 75.92 0.0
01 21:15 N 6 16.09 Overcast FEW080 OVC100 14.6 6 57% 75.87 0.0
01 20:47 SW 15 16.09 Overcast OVC075 17 5 45% 75.79 0.0
01 19:47 SW 15 16.09 Overcast OVC075 17 5 45% 75.79 0.0
01 18:47 S 19 G 37 16.09 Overcast OVC075 18 2 34% 75.82 0.0
01 17:47 SW 19 G 33 16.09 Overcast OVC075 18 3 37% 75.79 0.0
01 16:47 SW 19 G 33 16.09 A Few Clouds FEW075 18 3 37% 75.82 0.0
01 15:47 SW 19 G 31 16.09 Fair CLR 18 3 37% 75.87 0.0
01 14:47 SW 19 G 31 16.09 Fair CLR 18 3 37% 75.92 0.0
01 13:47 SW 17 16.09 Fair CLR 17 3 39% 76.02 0.0
01 12:51 SW 13 16.09 Fair CLR 16 3 42% 76.05 0.0
01 11:47 Calm 16.09 Fair CLR 15 3 45% 76.12 0.0
01 10:47 Calm 16.09 Fair CLR 14 5 55% 76.15 0.0
01 08:47 Calm 16.09 Fair CLR 10 5 71% 76.23 0.0
01 07:47 Calm 16.09 Fair CLR 7 5 87% 76.23 0.0
01 06:47 Calm 16.09 Fair CLR 3 3 100% 76.23 0.0
01 06:15 Calm 14.48 Fair CLR 2.6 2.6 100% 76.23 0.0
01 05:55 SE 7 16.09 Fair CLR 2.6 2.6 100% 1 76.2 0.0
01 05:35 S 6 14.48 Fair CLR 1.9 1.9 100% 76.2 0.0
01 05:15 Calm 12.87 Fair CLR 2.3 2.3 100% 76.2 0.0
01 04:55 Calm 12.87 Fair CLR 1.9 1.9 100% 76.2 0.0
01 04:35 Calm 11.27 Fair CLR 2.3 2.3 100% 76.17 0.0
01 04:15 Calm 12.87 Fair CLR 2.6 2.6 100% 76.17 0.0
01 03:55 Calm 12.87 Fair CLR 2.8 2.8 100% 76.17 0.0
01 03:35 Calm 12.87 Fair CLR 2.6 2.6 100% 76.17 0.0
01 03:15 Calm 14.48 Fair CLR 2.9 2.9 100% 76.15 0.0
01 02:55 Calm 14.48 Fair CLR 3.9 3.9 100% 76.15 0.0
01 02:35 Calm 14.48 Fair CLR 4.3 4.2 99% 76.15 0.0
01 02:15 Calm 14.48 Fair CLR 3.6 3.5 99% 76.17 0.0
01 01:35 Calm 12.87 Fair CLR 4.9 3.7 92% 76.17 0.0
01 00:55 Calm 16.09 Fair CLR 6.5 2.5 76% 76.17 0.0
01 00:35 W 7 16.09 Fair CLR 6.7 2.4 74% 6 76.17 0.0
01 00:15 W 9 16.09 Fair CLR 7.1 2.4 72% 6 76.15 0.0
30 23:55 NW 11 14.48 Fair CLR 7.5 2.4 70% 6 76.12 0.0
30 23:35 NW 9 16.09 Fair CLR 8.2 2.2 66% 7 76.12 0.0
30 23:15 NW 11 16.09 Fair CLR 8.3 2.1 65% 7 76.12 0.0
30 22:55 NW 9 16.09 Fair CLR 8.7 2.1 64% 7 76.12 0.0
30 22:35 Vrbl 9 16.09 Fair CLR 9.2 2.1 61% 8 76.12 0.0
30 21:55 N 6 14.48 Fair CLR 9.3 2.9 65% 76.12 0.0
30 21:35 N 9 14.48 Fair CLR 9.4 3 65% 8 76.1 0.0
30 21:15 N 7 8.05 Fair with Haze CLR 9.1 3.4 68% 8 76.07 0.0
30 20:47 N 7 16.09 Fair CLR 11 3 58% 76.05 0.0
30 19:47 W 31 G 37 16.09 Mostly Cloudy BKN070 14 4 51% 76 0.0
30 18:47 W 31 G 56 16.09 Mostly Cloudy BKN070 14 4 51% 75.9 0.0
30 17:47 W 19 G 46 16.09 Mostly Cloudy BKN070 19 3 35% 75.82 0.0
30 16:47 W 19 G 46 16.09 Mostly Cloudy BKN070 19 3 35% 75.77 0.0
Date Time (edt) Wind (kph) Vis. (km) Weather Sky Cond. Air Dwpt Max. Min. Relative Humidity Wind Chill (°C) Heat Index (°C) altimeter (cm) sea level (mb) 1 hr 3 hr 6 hr
6 hour
Temperature (ºC) Pressure Precipitation (cm)